createdAt,value
2018-12-20T00:02:01.201Z,7.10
2018-12-20T00:04:32.449Z,7.20
2018-12-20T00:07:03.497Z,7.10
2018-12-20T00:09:34.757Z,7.10
2018-12-20T00:12:08.547Z,7.10
2018-12-20T00:14:39.648Z,7.20
2018-12-20T00:17:15.307Z,7.20
2018-12-20T00:19:46.289Z,7.30
2018-12-20T00:22:17.497Z,7.30
2018-12-20T00:24:48.573Z,7.30
2018-12-20T00:27:20.094Z,7.20
2018-12-20T00:29:51.041Z,7.20
2018-12-20T00:32:22.259Z,7.30
2018-12-20T00:34:53.439Z,7.30
2018-12-20T00:37:24.809Z,7.30
2018-12-20T00:39:55.585Z,7.40
2018-12-20T00:42:26.669Z,7.40
2018-12-20T00:44:57.586Z,7.40
2018-12-20T00:47:28.632Z,7.50
2018-12-20T00:49:59.514Z,7.40
2018-12-20T00:52:30.482Z,7.50
2018-12-20T00:55:01.514Z,7.50
2018-12-20T00:57:32.480Z,7.40
2018-12-20T01:00:04.368Z,7.40
2018-12-20T01:02:35.238Z,7.40
2018-12-20T01:05:06.490Z,7.40
2018-12-20T01:07:37.405Z,7.40
2018-12-20T01:10:08.822Z,7.40
2018-12-20T01:12:40.105Z,7.50
2018-12-20T01:15:12.266Z,7.50
2018-12-20T01:17:43.165Z,7.50
2018-12-20T01:20:14.361Z,7.60
2018-12-20T01:22:45.331Z,7.60
2018-12-20T01:25:16.019Z,7.60
2018-12-20T01:27:47.197Z,7.50
2018-12-20T01:30:18.194Z,7.40
2018-12-20T01:32:49.062Z,7.40
2018-12-20T01:35:20.034Z,7.40
2018-12-20T01:37:50.865Z,7.40
2018-12-20T01:40:21.791Z,7.30
2018-12-20T01:42:52.727Z,7.20
2018-12-20T01:45:23.745Z,7.20
2018-12-20T01:47:54.864Z,7.10
2018-12-20T01:50:25.941Z,7.00
2018-12-20T01:52:56.945Z,7.00
2018-12-20T01:55:28.699Z,7.00
2018-12-20T01:57:59.860Z,7.00
2018-12-20T02:00:30.947Z,6.90
2018-12-20T02:03:01.700Z,6.90
2018-12-20T02:05:33.358Z,6.90
2018-12-20T02:08:05.121Z,7.00
2018-12-20T02:10:35.953Z,7.00
2018-12-20T02:13:07.061Z,7.00
2018-12-20T02:15:38.015Z,6.90
2018-12-20T02:18:08.988Z,7.00
2018-12-20T02:20:40.000Z,7.10
2018-12-20T02:23:11.030Z,7.00
2018-12-20T02:25:42.746Z,7.00
2018-12-20T02:28:14.075Z,7.00
2018-12-20T02:30:45.672Z,7.10
2018-12-20T02:33:17.406Z,7.00
2018-12-20T02:35:49.064Z,7.00
2018-12-20T02:38:19.937Z,7.00
2018-12-20T02:40:51.611Z,7.00
2018-12-20T02:43:22.648Z,7.00
2018-12-20T02:45:54.682Z,7.00
2018-12-20T02:48:25.651Z,7.00
2018-12-20T02:50:56.591Z,7.00
2018-12-20T02:53:27.413Z,7.00
2018-12-20T02:55:58.570Z,6.90
2018-12-20T02:58:29.763Z,6.90
2018-12-20T03:01:00.626Z,6.90
2018-12-20T03:03:31.281Z,6.90
2018-12-20T03:06:02.261Z,6.90
2018-12-20T03:08:33.071Z,6.90
2018-12-20T03:11:04.428Z,6.90
2018-12-20T03:13:35.278Z,6.80
2018-12-20T03:16:06.245Z,6.80
2018-12-20T03:18:36.948Z,6.80
2018-12-20T03:21:08.403Z,6.80
2018-12-20T03:23:39.285Z,6.80
2018-12-20T03:26:10.317Z,6.80
2018-12-20T03:28:41.308Z,6.90
2018-12-20T03:31:12.662Z,7.00
2018-12-20T03:33:44.003Z,6.90
2018-12-20T03:36:15.127Z,6.90
2018-12-20T03:38:46.074Z,6.90
2018-12-20T03:41:16.971Z,6.90
2018-12-20T03:43:47.910Z,7.00
2018-12-20T03:46:18.918Z,7.00
2018-12-20T03:48:50.157Z,7.00
2018-12-20T03:51:20.745Z,7.00
2018-12-20T03:53:51.630Z,7.00
2018-12-20T03:56:22.988Z,7.00
2018-12-20T03:58:53.809Z,7.10
2018-12-20T04:01:24.673Z,7.20
2018-12-20T04:03:56.160Z,7.30
2018-12-20T04:06:27.061Z,7.30
2018-12-20T04:08:58.054Z,7.40
2018-12-20T04:11:28.867Z,7.40
2018-12-20T04:13:59.444Z,7.40
2018-12-20T04:16:30.247Z,7.40
2018-12-20T04:19:01.200Z,7.40
2018-12-20T04:21:36.179Z,7.40
2018-12-20T04:24:07.389Z,7.40
2018-12-20T04:26:40.383Z,7.40
2018-12-20T04:29:11.804Z,7.50
2018-12-20T04:31:45.786Z,7.40
2018-12-20T04:34:17.171Z,7.40
2018-12-20T04:36:49.243Z,7.40
2018-12-20T04:39:22.087Z,7.40
2018-12-20T04:41:53.116Z,7.30
2018-12-20T04:44:24.812Z,7.40
2018-12-20T04:46:59.612Z,7.50
2018-12-20T04:49:31.837Z,7.50
2018-12-20T04:52:03.715Z,7.40
2018-12-20T04:54:34.544Z,7.40
2018-12-20T04:57:06.068Z,7.40
2018-12-20T04:59:37.959Z,7.50
2018-12-20T05:02:09.841Z,7.60
2018-12-20T05:04:45.552Z,7.70
2018-12-20T05:07:17.074Z,7.70
2018-12-20T05:09:48.783Z,7.70
2018-12-20T05:12:21.118Z,7.80
2018-12-20T05:14:53.242Z,7.70
2018-12-20T05:17:25.078Z,7.80
2018-12-20T05:19:56.636Z,7.80
2018-12-20T05:22:29.183Z,7.80
2018-12-20T05:25:01.885Z,7.80
2018-12-20T05:27:33.135Z,7.90
2018-12-20T05:30:04.399Z,7.90
2018-12-20T05:32:36.975Z,7.90
2018-12-20T05:35:08.368Z,7.80
2018-12-20T05:37:40.738Z,7.80
2018-12-20T05:40:11.973Z,7.80
2018-12-20T05:42:42.996Z,7.80
2018-12-20T05:45:15.322Z,7.80
2018-12-20T05:47:49.060Z,7.80
2018-12-20T05:50:22.217Z,7.90
2018-12-20T05:52:54.137Z,7.90
2018-12-20T05:55:25.683Z,7.80
2018-12-20T06:00:39.918Z,8.00
2018-12-20T06:03:10.926Z,8.00
2018-12-20T06:05:41.974Z,8.00
2018-12-20T06:08:12.893Z,8.00
2018-12-20T06:10:43.752Z,7.90
2018-12-20T06:13:14.699Z,7.90
2018-12-20T06:15:45.813Z,7.80
2018-12-20T06:18:16.859Z,7.80
2018-12-20T06:20:48.725Z,7.80
2018-12-20T06:23:19.339Z,7.80
2018-12-20T06:25:51.103Z,7.70
2018-12-20T06:28:22.295Z,7.70
2018-12-20T06:30:53.418Z,7.80
2018-12-20T06:33:24.414Z,7.70
2018-12-20T06:35:55.225Z,7.70
2018-12-20T06:38:25.976Z,7.70
2018-12-20T06:40:56.669Z,7.70
2018-12-20T06:43:27.490Z,7.70
2018-12-20T06:45:58.252Z,7.70
2018-12-20T06:48:29.264Z,7.60
2018-12-20T06:51:00.281Z,7.70
2018-12-20T06:53:31.039Z,7.60
2018-12-20T06:56:03.226Z,7.70
2018-12-20T06:58:34.139Z,7.70
2018-12-20T07:01:05.068Z,7.80
2018-12-20T07:03:36.531Z,7.80
2018-12-20T07:06:07.355Z,7.80
2018-12-20T07:08:38.649Z,7.80
2018-12-20T07:11:09.711Z,7.80
2018-12-20T07:13:40.808Z,7.80
2018-12-20T07:16:11.504Z,7.70
2018-12-20T07:18:42.371Z,7.70
2018-12-20T07:21:13.233Z,7.70
2018-12-20T07:23:44.834Z,7.80
2018-12-20T07:26:16.303Z,7.70
2018-12-20T07:28:47.175Z,7.70
2018-12-20T07:31:18.554Z,7.70
2018-12-20T07:33:49.766Z,7.70
2018-12-20T07:36:21.164Z,7.70
2018-12-20T07:38:52.088Z,7.70
2018-12-20T07:41:23.090Z,7.70
2018-12-20T07:43:54.307Z,7.80
2018-12-20T07:46:25.646Z,7.80
2018-12-20T07:48:56.853Z,7.80
2018-12-20T07:51:28.586Z,7.80
2018-12-20T07:53:59.741Z,7.80
2018-12-20T07:56:31.000Z,7.80
2018-12-20T07:59:02.386Z,7.80
2018-12-20T08:01:33.806Z,7.80
2018-12-20T08:04:05.042Z,7.80
2018-12-20T08:06:36.283Z,7.80
2018-12-20T08:09:10.001Z,7.80
2018-12-20T08:11:41.148Z,7.90
2018-12-20T08:14:12.475Z,7.90
2018-12-20T08:16:46.424Z,7.90
2018-12-20T08:19:19.756Z,7.90
2018-12-20T08:21:56.384Z,8.00
2018-12-20T08:24:31.158Z,8.00
2018-12-20T08:27:05.748Z,8.00
2018-12-20T08:29:36.979Z,8.00
2018-12-20T08:32:10.389Z,8.00
2018-12-20T08:34:43.089Z,8.00
2018-12-20T08:37:15.289Z,8.10
2018-12-20T08:39:46.892Z,8.00
2018-12-20T08:42:18.972Z,8.10
2018-12-20T08:44:50.820Z,8.20
2018-12-20T08:47:22.259Z,8.20
2018-12-20T08:49:54.696Z,8.20
2018-12-20T08:52:29.265Z,8.20
2018-12-20T08:55:02.623Z,8.30
2018-12-20T08:57:34.367Z,8.30
2018-12-20T09:00:07.601Z,8.40
2018-12-20T09:02:39.803Z,8.40
2018-12-20T09:05:11.303Z,8.50
2018-12-20T09:07:42.618Z,8.60
2018-12-20T09:10:14.416Z,8.70
2018-12-20T09:12:45.775Z,8.80
2018-12-20T09:15:18.011Z,8.80
2018-12-20T09:17:51.513Z,8.80
2018-12-20T09:20:32.537Z,8.80
2018-12-20T09:22:58.601Z,8.80
2018-12-20T09:25:30.875Z,8.90
2018-12-20T09:28:03.140Z,8.90
2018-12-20T09:30:35.717Z,9.00
2018-12-20T09:33:08.643Z,9.00
2018-12-20T09:35:40.572Z,9.00
2018-12-20T09:38:11.378Z,9.10
2018-12-20T09:40:42.881Z,9.20
2018-12-20T09:43:16.106Z,9.30
2018-12-20T09:45:48.517Z,9.30
2018-12-20T09:48:23.194Z,9.40
2018-12-20T09:50:55.516Z,9.40
2018-12-20T09:53:28.948Z,9.30
2018-12-20T09:56:00.318Z,9.30
2018-12-20T09:58:34.569Z,9.40
2018-12-20T10:01:07.306Z,9.30
2018-12-20T10:03:40.541Z,9.30
2018-12-20T10:06:13.742Z,9.20
2018-12-20T10:08:48.068Z,9.20
2018-12-20T10:11:21.002Z,9.10
2018-12-20T10:13:54.131Z,9.10
2018-12-20T10:16:26.181Z,9.10
2018-12-20T10:18:58.553Z,9.10
2018-12-20T10:21:34.654Z,9.10
2018-12-20T10:24:07.170Z,9.10
2018-12-20T10:26:39.157Z,9.10
2018-12-20T10:29:12.623Z,9.10
2018-12-20T10:31:44.704Z,9.10
2018-12-20T10:34:17.188Z,9.00
2018-12-20T10:36:49.809Z,9.00
2018-12-20T10:39:23.889Z,9.00
2018-12-20T10:41:57.702Z,9.00
2018-12-20T10:44:33.051Z,9.10
2018-12-20T10:47:09.988Z,9.10
2018-12-20T10:49:44.979Z,9.00
2018-12-20T10:52:16.643Z,9.00
2018-12-20T10:54:49.902Z,9.00
2018-12-20T10:57:22.521Z,9.00
2018-12-20T10:59:57.632Z,8.90
2018-12-20T11:02:35.145Z,8.90
2018-12-20T11:05:13.003Z,9.00
2018-12-20T11:07:50.128Z,9.00
2018-12-20T11:10:27.344Z,9.00
2018-12-20T11:13:00.991Z,9.10
2018-12-20T11:15:33.342Z,9.10
2018-12-20T11:18:07.097Z,9.20
2018-12-20T11:20:39.409Z,9.20
2018-12-20T11:23:11.468Z,9.20
2018-12-20T11:25:42.436Z,9.30
2018-12-20T11:28:15.712Z,9.30
2018-12-20T11:30:48.836Z,9.50
2018-12-20T11:35:56.810Z,9.90
2018-12-20T11:38:29.303Z,10.10
2018-12-20T11:41:01.802Z,10.30
2018-12-20T11:43:34.696Z,10.80
2018-12-20T11:46:06.147Z,10.90
2018-12-20T11:48:39.749Z,10.90
2018-12-20T11:51:12.353Z,10.90
2018-12-20T11:53:43.993Z,11.00
2018-12-20T11:56:17.040Z,11.20
2018-12-20T11:58:50.518Z,11.90
2018-12-20T12:01:23.300Z,12.60
2018-12-20T12:03:57.516Z,13.20
2018-12-20T12:06:28.927Z,13.80
2018-12-20T12:09:02.105Z,14.80
2018-12-20T12:11:33.900Z,15.50
2018-12-20T12:14:06.619Z,15.80
2018-12-20T12:16:38.814Z,16.40
2018-12-20T12:19:10.988Z,16.50
2018-12-20T12:21:42.686Z,16.70
2018-12-20T12:24:16.370Z,17.00
2018-12-20T12:26:50.144Z,17.00
2018-12-20T12:29:24.938Z,16.80
2018-12-20T12:31:56.361Z,16.80
2018-12-20T12:34:29.542Z,16.70
2018-12-20T12:37:05.497Z,16.40
2018-12-20T12:39:36.832Z,16.30
2018-12-20T12:42:09.041Z,16.30
2018-12-20T12:44:40.305Z,16.30
2018-12-20T12:47:12.449Z,16.20
2018-12-20T12:49:43.807Z,15.90
2018-12-20T12:52:15.818Z,15.60
2018-12-20T12:54:53.815Z,15.20
2018-12-20T12:57:25.712Z,15.00
2018-12-20T12:59:58.170Z,15.00
2018-12-20T13:02:32.453Z,15.70
2018-12-20T13:05:04.709Z,16.20
2018-12-20T13:07:37.639Z,16.40
2018-12-20T13:10:10.265Z,16.60
2018-12-20T13:12:42.898Z,16.40
2018-12-20T13:15:14.097Z,16.30
2018-12-20T13:17:46.600Z,16.30
2018-12-20T13:20:19.692Z,16.60
2018-12-20T13:22:52.207Z,16.50
2018-12-20T13:25:24.246Z,16.20
2018-12-20T13:27:57.236Z,15.80
2018-12-20T13:30:29.816Z,16.00
2018-12-20T13:33:02.032Z,16.00
2018-12-20T13:35:34.757Z,15.90
2018-12-20T13:38:10.621Z,15.80
2018-12-20T13:40:45.818Z,16.20
2018-12-20T13:43:18.721Z,16.50
2018-12-20T13:45:50.169Z,16.70
2018-12-20T13:48:22.324Z,16.40
2018-12-20T13:50:57.428Z,15.10
2018-12-20T13:53:29.935Z,14.00
2018-12-20T13:56:02.020Z,13.50
2018-12-20T13:58:35.112Z,13.40
2018-12-20T14:01:07.047Z,13.20
2018-12-20T14:03:39.542Z,13.20
2018-12-20T14:06:11.501Z,13.10
2018-12-20T14:08:43.748Z,13.20
2018-12-20T14:11:16.327Z,13.30
2018-12-20T14:13:50.441Z,13.70
2018-12-20T14:16:24.659Z,13.80
2018-12-20T14:18:56.985Z,14.20
2018-12-20T14:21:32.020Z,14.70
2018-12-20T14:24:04.529Z,14.90
2018-12-20T14:26:37.876Z,14.60
2018-12-20T14:29:09.873Z,14.40
2018-12-20T14:31:42.325Z,14.00
2018-12-20T14:34:17.305Z,13.60
2018-12-20T14:36:50.438Z,13.50
2018-12-20T14:39:23.257Z,13.60
2018-12-20T14:41:56.248Z,13.60
2018-12-20T14:44:28.294Z,13.30
2018-12-20T14:46:59.507Z,13.00
2018-12-20T14:49:33.027Z,12.60
2018-12-20T14:52:05.464Z,12.00
2018-12-20T14:54:38.453Z,11.60
2018-12-20T14:57:12.193Z,11.40
2018-12-20T14:59:45.383Z,11.30
2018-12-20T15:02:18.257Z,11.60
2018-12-20T15:04:50.440Z,11.70
2018-12-20T15:07:22.258Z,11.70
2018-12-20T15:09:54.985Z,11.70
2018-12-20T15:12:27.502Z,11.70
2018-12-20T15:14:59.292Z,11.70
2018-12-20T15:17:32.497Z,11.60
2018-12-20T15:20:04.814Z,11.50
2018-12-20T15:22:37.743Z,11.30
2018-12-20T15:25:10.957Z,11.30
2018-12-20T15:27:44.446Z,11.20
2018-12-20T15:30:16.425Z,11.10
2018-12-20T15:32:56.165Z,10.90
2018-12-20T15:35:30.361Z,10.90
2018-12-20T15:38:03.723Z,10.70
2018-12-20T15:40:37.266Z,10.70
2018-12-20T15:43:09.055Z,10.60
2018-12-20T15:45:40.811Z,10.50
2018-12-20T15:48:17.481Z,10.30
2018-12-20T15:53:33.689Z,10.10
2018-12-20T15:56:04.979Z,10.00
2018-12-20T15:58:36.621Z,9.90
2018-12-20T16:01:08.212Z,9.80
2018-12-20T16:03:39.428Z,9.80
2018-12-20T16:06:10.630Z,9.70
2018-12-20T16:08:41.688Z,9.70
2018-12-20T16:11:13.958Z,9.80
2018-12-20T16:13:46.782Z,9.80
2018-12-20T16:16:18.321Z,9.80
2018-12-20T16:18:49.787Z,9.70
2018-12-20T16:21:21.646Z,9.70
2018-12-20T16:23:52.987Z,9.60
2018-12-20T16:26:23.868Z,9.70
2018-12-20T16:28:55.443Z,9.60
2018-12-20T16:31:26.715Z,9.60
2018-12-20T16:33:57.984Z,9.60
2018-12-20T16:36:30.453Z,9.40
2018-12-20T16:39:02.559Z,9.30
2018-12-20T16:41:34.852Z,9.20
2018-12-20T16:44:07.034Z,9.30
2018-12-20T16:46:39.029Z,9.30
2018-12-20T16:49:13.763Z,9.30
2018-12-20T16:51:44.177Z,9.30
2018-12-20T16:54:17.061Z,9.40
2018-12-20T16:56:48.982Z,9.40
2018-12-20T16:59:21.603Z,9.50
2018-12-20T17:01:52.864Z,9.40
2018-12-20T17:04:26.763Z,9.40
2018-12-20T17:06:58.273Z,9.30
2018-12-20T17:09:29.818Z,9.20
2018-12-20T17:12:01.001Z,9.10
2018-12-20T17:14:32.300Z,9.00
2018-12-20T17:17:03.704Z,8.90
2018-12-20T17:19:35.763Z,8.80
2018-12-20T17:22:08.436Z,8.80
2018-12-20T17:24:40.434Z,8.70
2018-12-20T17:27:12.127Z,8.70
2018-12-20T17:29:43.734Z,8.60
2018-12-20T17:32:17.497Z,8.50
2018-12-20T17:34:49.252Z,8.40
2018-12-20T17:37:20.779Z,8.30
2018-12-20T17:39:53.271Z,8.30
2018-12-20T17:42:24.855Z,8.30
2018-12-20T17:44:56.807Z,8.20
2018-12-20T17:47:28.357Z,8.00
2018-12-20T17:50:00.434Z,7.90
2018-12-20T17:52:32.195Z,7.90
2018-12-20T17:55:04.471Z,7.90
2018-12-20T17:57:36.281Z,7.90
2018-12-20T18:00:10.495Z,7.90
2018-12-20T18:02:41.793Z,8.00
2018-12-20T18:05:13.527Z,7.90
2018-12-20T18:07:45.179Z,7.80
2018-12-20T18:10:16.714Z,7.70
2018-12-20T18:12:49.112Z,7.50
2018-12-20T18:15:20.551Z,7.40
2018-12-20T18:17:52.850Z,7.30
2018-12-20T18:20:24.159Z,7.20
2018-12-20T18:22:56.511Z,7.20
2018-12-20T18:25:28.116Z,7.10
2018-12-20T18:27:59.655Z,7.20
2018-12-20T18:30:30.656Z,7.20
2018-12-20T18:33:02.273Z,7.10
2018-12-20T18:35:33.649Z,7.10
2018-12-20T18:38:05.428Z,6.90
2018-12-20T18:40:37.345Z,6.80
2018-12-20T18:43:09.557Z,6.70
2018-12-20T18:45:42.252Z,6.70
2018-12-20T18:48:13.749Z,6.50
2018-12-20T18:50:44.717Z,6.40
2018-12-20T18:53:16.419Z,6.30
2018-12-20T18:55:47.383Z,6.20
2018-12-20T18:58:18.666Z,6.20
2018-12-20T19:00:49.947Z,6.20
2018-12-20T19:03:21.064Z,6.20
2018-12-20T19:05:52.416Z,6.20
2018-12-20T19:08:24.015Z,6.10
2018-12-20T19:10:55.819Z,6.00
2018-12-20T19:13:27.163Z,6.10
2018-12-20T19:15:58.720Z,6.10
2018-12-20T19:18:29.600Z,6.10
2018-12-20T19:21:00.775Z,6.10
2018-12-20T19:23:31.668Z,5.90
2018-12-20T19:26:04.415Z,5.90
2018-12-20T19:28:35.922Z,6.00
2018-12-20T19:31:07.577Z,6.00
2018-12-20T19:33:38.991Z,5.90
2018-12-20T19:36:10.620Z,5.90
2018-12-20T19:38:42.164Z,5.90
2018-12-20T19:41:14.336Z,6.00
2018-12-20T19:43:45.997Z,6.00
2018-12-20T19:46:17.940Z,6.00
2018-12-20T19:48:49.296Z,6.10
2018-12-20T19:51:20.822Z,6.10
2018-12-20T19:53:53.036Z,6.10
2018-12-20T19:56:24.196Z,6.10
2018-12-20T19:58:55.853Z,6.00
2018-12-20T20:01:27.531Z,5.80
2018-12-20T20:03:59.399Z,5.80
2018-12-20T20:06:30.543Z,5.70
2018-12-20T20:09:02.584Z,5.70
2018-12-20T20:11:33.824Z,5.70
2018-12-20T20:14:05.318Z,5.60
2018-12-20T20:16:37.022Z,5.60
2018-12-20T20:19:09.218Z,5.50
2018-12-20T20:21:42.193Z,5.40
2018-12-20T20:24:14.784Z,5.40
2018-12-20T20:26:47.140Z,5.30
2018-12-20T20:29:18.938Z,5.30
2018-12-20T20:31:50.682Z,5.30
2018-12-20T20:34:23.802Z,5.20
2018-12-20T20:36:55.414Z,5.20
2018-12-20T20:39:27.674Z,5.10
2018-12-20T20:41:59.331Z,5.10
2018-12-20T20:44:32.459Z,5.10
2018-12-20T20:47:04.170Z,5.10
2018-12-20T20:49:35.794Z,5.10
2018-12-20T20:52:08.101Z,5.10
2018-12-20T20:54:41.141Z,5.10
2018-12-20T20:57:12.635Z,5.20
2018-12-20T20:59:50.801Z,5.10
2018-12-20T21:02:19.204Z,5.10
2018-12-20T21:04:50.483Z,5.00
2018-12-20T21:07:22.643Z,5.00
2018-12-20T21:09:54.030Z,4.90
2018-12-20T21:12:25.310Z,4.90
2018-12-20T21:14:56.820Z,5.00
2018-12-20T21:17:28.222Z,4.90
2018-12-20T21:19:59.633Z,5.00
2018-12-20T21:22:30.980Z,5.00
2018-12-20T21:25:02.765Z,5.00
2018-12-20T21:27:33.972Z,4.90
2018-12-20T21:30:09.889Z,4.90
2018-12-20T21:32:41.440Z,4.80
2018-12-20T21:35:12.573Z,4.70
2018-12-20T21:37:43.639Z,4.60
2018-12-20T21:40:14.833Z,4.50
2018-12-20T21:42:46.109Z,4.40
2018-12-20T21:45:17.301Z,4.50
2018-12-20T21:47:48.476Z,4.60
2018-12-20T21:50:19.970Z,4.70
2018-12-20T21:52:51.015Z,4.70
2018-12-20T21:55:22.387Z,4.60
2018-12-20T21:57:55.492Z,4.50
2018-12-20T22:00:27.419Z,4.40
2018-12-20T22:02:58.969Z,4.30
2018-12-20T22:05:30.360Z,4.30
2018-12-20T22:08:02.126Z,4.40
2018-12-20T22:10:34.583Z,4.40
2018-12-20T22:13:06.725Z,4.40
2018-12-20T22:15:38.049Z,4.40
2018-12-20T22:18:10.397Z,4.40
2018-12-20T22:20:47.238Z,4.30
2018-12-20T22:23:15.534Z,4.30
2018-12-20T22:25:47.439Z,4.30
2018-12-20T22:28:19.695Z,4.20
2018-12-20T22:30:50.905Z,4.10
2018-12-20T22:33:22.477Z,4.10
2018-12-20T22:35:54.072Z,4.00
2018-12-20T22:38:25.883Z,4.00
2018-12-20T22:40:57.605Z,4.00
2018-12-20T22:43:28.959Z,3.90
2018-12-20T22:46:00.751Z,4.00
2018-12-20T22:48:32.265Z,3.90
2018-12-20T22:51:05.480Z,3.90
2018-12-20T22:53:37.094Z,3.80
2018-12-20T22:56:11.707Z,3.80
2018-12-20T22:58:44.562Z,3.80
2018-12-20T23:01:17.150Z,3.80
2018-12-20T23:03:49.781Z,3.80
2018-12-20T23:06:21.748Z,3.80
2018-12-20T23:08:54.167Z,3.80
2018-12-20T23:11:25.755Z,3.80
2018-12-20T23:13:57.324Z,3.80
2018-12-20T23:16:28.937Z,3.70
2018-12-20T23:19:01.671Z,3.60
2018-12-20T23:21:32.907Z,3.70
2018-12-20T23:24:05.804Z,3.60
2018-12-20T23:26:36.838Z,3.60
2018-12-20T23:29:08.262Z,3.70
2018-12-20T23:31:39.237Z,3.80
2018-12-20T23:34:10.539Z,3.80
2018-12-20T23:36:41.755Z,3.80
2018-12-20T23:39:13.093Z,3.80
2018-12-20T23:41:44.147Z,3.70
2018-12-20T23:44:15.566Z,3.50
2018-12-20T23:46:46.733Z,3.50
2018-12-20T23:49:18.033Z,3.50
2018-12-20T23:51:50.076Z,3.50
2018-12-20T23:54:21.285Z,3.50
2018-12-20T23:56:52.483Z,3.40
2018-12-20T23:59:23.612Z,3.40
